Airfield :
LOGIN :

Register | Disclaimer

   EN    FR    IT 

 










Legend :    VFR   Marginal VFR   IFR   Intensive IFR   Very Intensive IFR
Visi :
Ceiling :
>= 8 km
>= 3000ft
5 to 8 km
1000 to 3000 ft
1500m to 5 km
500 to 1000 ft
800 to 1500m
200 to 500 ft
< 800m
< 200 ft
Symbols :   Thunderstorms  Fog  Heavy snow  Heavy precipitations  Wind > 20 kt
SIGMETs :     Misc.  Thunderstorms  Icing  Turbulence  Mountain Waves  Volcanic Ashes







- Airport Elevation : 12 ft
- IATA code : NCE
- Download approach charts


LFMN - Nice

CURRENT METAR :
  • 200615Z 33006KT 9999 FEW016 BKN230 15/10 Q1005 NOSIG

EXPIRED METARs :
  • 200600Z 33007KT 9999 FEW016 BKN230 14/10 Q1005 NOSIG
  • 200530Z 33007KT 9999 FEW018 BKN230 13/10 Q1005 NOSIG
  • 200500Z 33007KT 9999 FEW018 BKN230 12/10 Q1005 NOSIG
  • 200430Z 33008KT 9999 SCT013 SCT230 12/10 Q1004 NOSIG
  • 200400Z 33007KT 9999 FEW020 12/10 Q1004 NOSIG
  • 200330Z 33006KT 9999 FEW020 12/10 Q1004 NOSIG

TAF TAF LFMN
Valid from the 20 at 03:00 until the 21 at 09:00 UTC


200200Z 2003/2109 33010KT CAVOK
TEMPO 2003/2007 BKN020
BECMG 2007/2009 16010KT FEW025
TEMPO 2014/2017 SHRA SCT030TCU BKN070
BECMG 2017/2018 VRB03KT CAVOK
BECMG 2021/2023 34010KT
TEMPO 2101/2109 BKN020
BECMG 2107/2109 18010KT
ATIS : +33 4 93 17 21 16
No reported NOTAMs for that airfield.



MET'MAP, your aeronautical weather chart ! - Copyright ORBIFLY December 2007 - Disclaimer

ORBIFLY MET'MAP TEAM :

Programming & Development : Alexandra Zaïnal
Concept & Development : Baudouin d'Aumeries
Co-Development & Prog : Marc-Olivier Méhu
Technical & hardware support : Manuel Goepfert

Contact : metmap@orbifly.com




SOURCES & CREDITS :

   NOAA